EST,Max TemperatureF,Mean TemperatureF,Min TemperatureF,Max Dew PointF,MeanDew PointF,Min DewpointF,Max Humidity, Mean Humidity, Min Humidity, Max Sea Level PressureIn, Mean Sea Level PressureIn, Min Sea Level PressureIn, Max VisibilityMiles, Mean VisibilityMiles, Min VisibilityMiles, Max Wind SpeedMPH, Mean Wind SpeedMPH, Max Gust SpeedMPH,PrecipitationIn, CloudCover, Events, WindDirDegrees
2013-2-1,39,32,23,27,11,1,75,44,24,30.40,30.13,29.84,10,10,10,15,5,29,0.00,1,,289
2013-2-2,39,28,17,20,11,6,81,50,27,30.42,30.27,30.03,10,10,10,8,2,,0.00,3,,204
2013-2-3,45,38,30,26,23,17,72,55,38,30.01,29.92,29.84,10,10,10,6,2,,0.00,6,,282
2013-2-4,45,33,21,24,19,15,85,55,33,30.15,30.06,29.99,10,10,10,12,2,,0.00,0,,211
2013-2-5,57,47,37,36,31,25,83,58,39,29.97,29.93,29.87,10,10,10,9,5,,0.00,5,,230
2013-2-6,57,44,30,34,32,28,92,67,39,30.34,30.15,29.96,10,10,8,7,1,,0.00,0,,22
2013-2-7,48,38,28,41,33,26,96,78,52,30.41,30.32,30.13,10,8,2,5,2,,0.56,4,Rain,58
2013-2-8,51,46,41,42,38,27,89,79,53,30.07,29.84,29.74,10,8,3,13,6,23,1.00,6,Rain,333
2013-2-9,48,38,26,26,20,14,82,53,25,30.40,30.22,29.96,10,10,10,12,4,25,0.00,0,,319
2013-2-10,50,36,21,31,22,16,85,59,28,30.52,30.42,30.29,10,10,10,7,1,,0.00,0,,200
2013-2-11,62,52,43,58,51,31,100,86,62,30.24,30.01,29.85,10,8,2,14,6,23,0.06,7,Rain,213
2013-2-12,59,52,44,46,34,26,73,51,28,30.04,29.96,29.88,10,10,10,8,5,18,0.00,1,,253
2013-2-13,48,45,42,45,43,35,93,86,59,29.93,29.72,29.62,10,6,1,6,1,,0.12,8,Rain,318
2013-2-14,48,39,30,38,33,28,93,81,44,30.09,29.97,29.78,10,7,1,7,3,,0.00,2,,326
2013-2-15,61,46,30,36,33,28,93,69,32,30.09,30.02,29.94,10,8,2,8,2,,0.00,1,,244
2013-2-16,43,38,32,35,31,27,96,84,73,29.99,29.88,29.81,10,5,0,12,7,23,0.34,7,Fog-Rain-Snow,8
2013-2-17,33,28,23,23,12,3,81,53,32,30.27,30.05,29.86,10,10,10,14,5,24,0.00,3,,294
2013-2-18,46,31,16,21,13,5,81,49,21,30.44,30.34,30.28,10,10,4,7,2,,0.00,0,,207
2013-2-19,55,44,33,50,39,22,93,78,59,30.27,29.97,29.80,10,9,2,12,6,22,0.07,4,Rain,220
2013-2-20,48,40,32,35,19,11,76,46,22,30.15,30.03,29.91,10,10,10,13,6,20,0.00,0,,280
2013-2-21,46,34,21,21,17,14,82,54,30,30.31,30.21,30.15,10,10,10,9,2,,0.00,0,,13
2013-2-22,44,39,34,36,28,18,93,70,49,30.38,30.28,30.19,10,9,3,5,2,,0.03,7,Rain,26
2013-2-23,43,40,37,41,38,36,100,93,87,30.18,29.96,29.81,10,3,0,8,3,,0.34,8,Fog-Rain,356
2013-2-24,55,47,37,43,40,23,96,83,53,30.10,29.89,29.80,10,6,0,14,2,23,0.00,5,Fog-Rain,340
2013-2-25,44,36,28,27,22,19,89,62,38,30.24,30.19,30.12,10,10,10,9,4,,0.00,0,,21
2013-2-26,57,42,28,57,47,24,100,92,79,30.22,29.79,29.57,10,5,0,9,2,22,1.04,7,Fog-Rain,267
2013-2-27,59,48,37,55,43,35,100,80,44,29.72,29.65,29.57,10,9,0,13,5,17,0.00,4,Fog,259
2013-2-28,50,44,37,38,29,24,85,58,39,29.79,29.72,29.66,10,10,10,10,4,20,0.00,4,,269